createdAt,value
2022-12-18T00:01:38.958Z,32.37
2022-12-18T00:04:09.135Z,31.10
2022-12-18T00:06:38.947Z,30.93
2022-12-18T00:09:09.355Z,29.07
2022-12-18T00:11:39.972Z,27.97
2022-12-18T00:14:09.758Z,28.33
2022-12-18T00:16:38.040Z,28.67
2022-12-18T00:19:05.987Z,30.27
2022-12-18T00:21:34.052Z,30.00
2022-12-18T00:24:01.335Z,26.20
2022-12-18T00:26:32.898Z,29.13
2022-12-18T00:29:04.124Z,27.13
2022-12-18T00:31:33.398Z,27.27
2022-12-18T00:34:00.582Z,28.17
2022-12-18T00:36:32.071Z,27.83
2022-12-18T00:39:02.317Z,26.63
2022-12-18T00:41:55.041Z,27.50
2022-12-18T00:44:22.026Z,25.13
2022-12-18T00:46:49.777Z,28.13
2022-12-18T00:49:21.886Z,26.63
2022-12-18T00:51:53.200Z,27.63
2022-12-18T00:54:20.172Z,27.10
2022-12-18T00:56:54.026Z,25.87
2022-12-18T00:59:21.056Z,26.83
2022-12-18T01:01:52.007Z,27.60
2022-12-18T01:04:22.628Z,25.87
2022-12-18T01:06:49.617Z,24.97
2022-12-18T01:09:19.265Z,25.73
2022-12-18T01:11:46.173Z,27.03
2022-12-18T01:14:13.094Z,24.17
2022-12-18T01:16:40.080Z,25.57
2022-12-18T01:19:07.329Z,26.60
2022-12-18T01:21:37.692Z,26.17
2022-12-18T01:24:05.808Z,24.50
2022-12-18T01:26:32.839Z,25.07
2022-12-18T01:29:00.086Z,24.70
2022-12-18T01:31:36.591Z,25.47
2022-12-18T01:34:05.819Z,25.33
2022-12-18T01:36:37.706Z,25.87
2022-12-18T01:39:14.386Z,24.63
2022-12-18T01:42:03.390Z,25.43
2022-12-18T01:44:55.065Z,24.73
2022-12-18T01:47:44.750Z,25.43
2022-12-18T01:50:59.200Z,26.27
2022-12-18T01:53:29.074Z,24.67
2022-12-18T01:56:00.368Z,24.37
2022-12-18T01:58:56.207Z,25.80
2022-12-18T02:01:27.750Z,25.57
2022-12-18T02:03:54.859Z,24.27
2022-12-18T02:06:41.341Z,25.70
2022-12-18T02:09:29.895Z,25.90
2022-12-18T02:12:24.714Z,26.73
2022-12-18T02:15:47.248Z,24.33
2022-12-18T02:18:31.807Z,24.27
2022-12-18T02:21:36.258Z,24.07
2022-12-18T02:24:39.994Z,24.67
2022-12-18T02:27:09.500Z,24.63
2022-12-18T02:29:57.884Z,24.70
2022-12-18T02:32:33.880Z,24.37
2022-12-18T02:35:03.721Z,25.10
2022-12-18T02:37:33.394Z,25.73
2022-12-18T02:40:04.205Z,24.83
2022-12-18T02:42:35.109Z,25.43
2022-12-18T02:45:02.068Z,25.63
2022-12-18T02:47:40.032Z,24.50
2022-12-18T02:50:23.902Z,24.50
2022-12-18T02:53:15.951Z,23.90
2022-12-18T02:56:22.738Z,24.53
2022-12-18T02:59:01.665Z,25.43
2022-12-18T03:02:25.099Z,23.90
2022-12-18T03:05:12.196Z,23.97
2022-12-18T03:08:16.921Z,23.37
2022-12-18T03:11:12.488Z,23.00
2022-12-18T03:13:57.664Z,23.93
2022-12-18T03:16:29.872Z,23.77
2022-12-18T03:19:02.812Z,25.10
2022-12-18T03:21:38.453Z,24.23
2022-12-18T03:24:09.398Z,23.53
2022-12-18T03:26:44.440Z,24.40
2022-12-18T03:29:21.940Z,23.57
2022-12-18T03:32:09.219Z,24.60
2022-12-18T03:34:39.394Z,24.17
2022-12-18T03:37:08.958Z,24.00
2022-12-18T03:39:39.668Z,25.50
2022-12-18T03:42:19.745Z,26.77
2022-12-18T03:44:55.802Z,25.87
2022-12-18T03:47:46.091Z,25.13
2022-12-18T03:50:58.650Z,23.70
2022-12-18T03:53:40.386Z,23.00
2022-12-18T03:56:11.175Z,23.10
2022-12-18T03:58:47.067Z,24.43
2022-12-18T04:01:17.840Z,25.47
2022-12-18T04:03:48.000Z,25.27
2022-12-18T04:06:18.310Z,24.10
2022-12-18T04:08:46.233Z,24.57
2022-12-18T04:11:13.199Z,24.77
2022-12-18T04:13:43.523Z,24.20
2022-12-18T04:16:14.126Z,24.87
2022-12-18T04:18:41.136Z,23.93
2022-12-18T04:21:08.177Z,24.07
2022-12-18T04:23:35.193Z,22.27
2022-12-18T04:26:02.134Z,22.57
2022-12-18T04:28:29.057Z,23.03
2022-12-18T04:30:58.266Z,22.53
2022-12-18T04:33:25.251Z,22.27
2022-12-18T04:35:52.193Z,21.77
2022-12-18T04:38:20.757Z,23.23
2022-12-18T04:40:47.705Z,21.77
2022-12-18T04:43:14.691Z,20.37
2022-12-18T04:45:41.683Z,21.67
2022-12-18T04:48:08.660Z,21.90
2022-12-18T04:50:39.861Z,20.83
2022-12-18T04:53:10.155Z,22.57
2022-12-18T04:55:40.532Z,22.57
2022-12-18T04:58:10.877Z,23.50
2022-12-18T05:00:38.278Z,23.03
2022-12-18T05:03:07.165Z,21.00
2022-12-18T05:05:36.760Z,21.37
2022-12-18T05:08:03.859Z,23.13
2022-12-18T05:10:37.558Z,23.37
2022-12-18T05:13:11.168Z,22.37
2022-12-18T05:15:38.672Z,21.93
2022-12-18T05:18:05.927Z,20.93
2022-12-18T05:20:37.109Z,22.03
2022-12-18T05:23:04.088Z,19.73
2022-12-18T05:25:31.046Z,20.30
2022-12-18T05:27:58.112Z,22.63
2022-12-18T05:30:25.735Z,22.80
2022-12-18T05:32:56.627Z,21.33
2022-12-18T05:35:25.330Z,23.00
2022-12-18T05:37:52.289Z,22.93
2022-12-18T05:40:19.370Z,22.10
2022-12-18T05:42:50.346Z,22.93
2022-12-18T05:45:17.411Z,22.37
2022-12-18T05:47:44.304Z,23.30
2022-12-18T05:50:11.212Z,21.47
2022-12-18T05:52:38.675Z,21.83
2022-12-18T05:55:05.933Z,22.13
2022-12-18T05:57:33.088Z,23.33
2022-12-18T06:00:05.828Z,23.33
2022-12-18T06:02:32.923Z,22.77
2022-12-18T06:05:06.060Z,21.57
2022-12-18T06:07:33.264Z,21.43
2022-12-18T06:10:00.181Z,22.00
2022-12-18T06:12:27.296Z,21.13
2022-12-18T06:14:56.479Z,22.50
2022-12-18T06:17:25.345Z,23.20
2022-12-18T06:19:56.533Z,21.53
2022-12-18T06:22:23.734Z,21.90
2022-12-18T06:24:50.883Z,19.93
2022-12-18T06:27:18.028Z,21.13
2022-12-18T06:29:47.423Z,22.03
2022-12-18T06:32:17.254Z,22.67
2022-12-18T06:34:44.253Z,22.80
2022-12-18T06:37:11.160Z,21.53
2022-12-18T06:39:38.175Z,20.60
2022-12-18T06:42:05.392Z,20.10
2022-12-18T06:44:32.477Z,19.73
2022-12-18T06:46:59.391Z,20.23
2022-12-18T06:49:30.466Z,20.13
2022-12-18T06:51:57.808Z,19.43
2022-12-18T06:54:24.705Z,20.10
2022-12-18T06:56:53.729Z,18.30
2022-12-18T06:59:24.061Z,19.97
2022-12-18T07:01:51.112Z,19.53
2022-12-18T07:04:28.575Z,20.57
2022-12-18T07:06:55.488Z,19.50
2022-12-18T07:09:23.049Z,20.53
2022-12-18T07:11:49.963Z,19.67
2022-12-18T07:14:16.868Z,19.03
2022-12-18T07:16:43.860Z,19.03
2022-12-18T07:19:10.890Z,19.77
2022-12-18T07:21:37.969Z,19.83
2022-12-18T07:24:05.615Z,18.63
2022-12-18T07:26:32.596Z,18.53
2022-12-18T07:28:59.747Z,16.23
2022-12-18T07:31:27.996Z,15.90
2022-12-18T07:33:56.243Z,14.43
2022-12-18T07:36:23.460Z,14.63
2022-12-18T07:38:52.539Z,13.27
2022-12-18T07:41:19.879Z,13.83
2022-12-18T07:43:47.209Z,14.17
2022-12-18T07:46:15.953Z,12.80
2022-12-18T07:48:45.223Z,11.80
2022-12-18T07:51:16.817Z,11.13
2022-12-18T07:53:44.366Z,12.03
2022-12-18T07:56:30.366Z,11.23
2022-12-18T07:58:59.406Z,11.77
2022-12-18T08:01:26.795Z,12.73
2022-12-18T08:03:53.970Z,11.73
2022-12-18T08:06:23.797Z,11.80
2022-12-18T08:08:56.506Z,12.10
2022-12-18T08:11:26.408Z,12.83
2022-12-18T08:13:54.021Z,13.30
2022-12-18T08:16:22.060Z,12.83
2022-12-18T08:18:49.646Z,13.03
2022-12-18T08:21:24.824Z,13.43
2022-12-18T08:23:54.175Z,12.40
2022-12-18T08:26:21.822Z,12.67
2022-12-18T08:28:50.899Z,11.83
2022-12-18T08:31:19.453Z,11.37
2022-12-18T08:33:46.932Z,11.20
2022-12-18T08:36:13.960Z,10.93
2022-12-18T08:38:41.038Z,10.30
2022-12-18T08:41:13.786Z,9.83
2022-12-18T08:44:00.065Z,9.30
2022-12-18T08:46:32.242Z,10.80
2022-12-18T08:48:59.303Z,10.63
2022-12-18T08:51:26.249Z,10.10
2022-12-18T08:53:53.143Z,9.87
2022-12-18T08:56:20.234Z,9.67
2022-12-18T08:58:47.541Z,10.30
2022-12-18T09:01:14.836Z,10.33
2022-12-18T09:03:42.281Z,10.07
2022-12-18T09:06:10.186Z,9.80
2022-12-18T09:08:38.199Z,9.90
2022-12-18T09:11:05.579Z,10.23
2022-12-18T09:13:32.706Z,11.13
2022-12-18T09:15:59.666Z,10.43
2022-12-18T09:18:26.598Z,10.53
2022-12-18T09:20:53.937Z,11.00
2022-12-18T09:23:22.035Z,10.80
2022-12-18T09:25:49.370Z,11.20
2022-12-18T09:28:19.131Z,11.13
2022-12-18T09:30:50.485Z,11.30
2022-12-18T09:33:18.173Z,10.70
2022-12-18T09:35:46.575Z,11.43
2022-12-18T09:38:18.844Z,11.23
2022-12-18T09:40:54.177Z,11.07
2022-12-18T09:43:50.692Z,10.50
2022-12-18T09:46:27.998Z,10.87
2022-12-18T09:49:01.373Z,10.23
2022-12-18T09:51:41.302Z,11.60
2022-12-18T09:54:17.734Z,9.87
2022-12-18T09:56:45.176Z,11.10
2022-12-18T09:59:28.053Z,10.57
2022-12-18T10:01:55.634Z,10.93
2022-12-18T10:04:22.611Z,10.20
2022-12-18T10:07:08.888Z,11.20
2022-12-18T10:10:05.416Z,13.97
2022-12-18T10:12:41.082Z,12.27
2022-12-18T10:15:28.948Z,13.20
2022-12-18T10:18:02.927Z,11.53
2022-12-18T10:20:45.485Z,11.07
2022-12-18T10:23:45.074Z,10.73
2022-12-18T10:26:15.079Z,11.27
2022-12-18T10:28:43.548Z,11.43
2022-12-18T10:31:19.644Z,12.57
2022-12-18T10:33:47.134Z,12.07
2022-12-18T10:36:14.352Z,11.63
2022-12-18T10:38:42.553Z,11.83
2022-12-18T10:41:19.574Z,11.57
2022-12-18T10:43:49.071Z,12.13
2022-12-18T10:46:21.130Z,11.93
2022-12-18T10:48:48.026Z,12.27
2022-12-18T10:51:23.563Z,12.47
2022-12-18T10:54:19.239Z,12.13
2022-12-18T10:56:47.080Z,10.83
2022-12-18T10:59:17.256Z,13.13
2022-12-18T11:01:55.890Z,13.30
2022-12-18T11:04:27.048Z,12.43
2022-12-18T11:07:02.385Z,13.07
2022-12-18T11:09:37.845Z,13.83
2022-12-18T11:12:20.262Z,13.83
2022-12-18T11:14:51.091Z,14.17
2022-12-18T11:17:27.051Z,12.80
2022-12-18T11:20:32.641Z,14.13
2022-12-18T11:23:13.283Z,15.00
2022-12-18T11:25:40.712Z,14.87
2022-12-18T11:28:36.794Z,14.37
2022-12-18T11:31:33.713Z,14.60
2022-12-18T11:34:34.283Z,15.23
2022-12-18T11:37:04.339Z,15.20
2022-12-18T11:39:43.004Z,15.37
2022-12-18T11:42:41.569Z,14.83
2022-12-18T11:45:14.592Z,16.47
2022-12-18T11:47:58.997Z,15.87
2022-12-18T11:50:59.450Z,16.20
2022-12-18T11:53:28.355Z,15.60
2022-12-18T11:56:07.069Z,17.40
2022-12-18T11:58:52.143Z,17.03
2022-12-18T12:01:57.929Z,16.50
2022-12-18T12:05:02.895Z,16.87
2022-12-18T12:07:48.326Z,17.13
2022-12-18T12:10:56.887Z,17.60
2022-12-18T12:14:00.215Z,17.13
2022-12-18T12:16:50.491Z,18.60
2022-12-18T12:20:00.173Z,17.97
2022-12-18T12:22:50.761Z,19.23
2022-12-18T12:26:03.380Z,18.70
2022-12-18T12:28:36.058Z,18.17
2022-12-18T12:31:22.268Z,18.20
2022-12-18T12:33:55.146Z,17.87
2022-12-18T12:36:47.162Z,19.13
2022-12-18T12:39:22.924Z,18.77
2022-12-18T12:42:08.752Z,18.87
2022-12-18T12:44:55.640Z,19.57
2022-12-18T12:47:38.625Z,18.43
2022-12-18T12:50:15.486Z,19.53
2022-12-18T12:52:55.960Z,21.07
2022-12-18T12:55:28.032Z,19.80
2022-12-18T12:58:21.453Z,19.30
2022-12-18T13:01:08.719Z,20.27
2022-12-18T13:04:34.037Z,20.13
2022-12-18T13:07:20.039Z,19.33
2022-12-18T13:10:13.528Z,19.23
2022-12-18T13:13:11.000Z,19.73
2022-12-18T13:15:51.353Z,20.03
2022-12-18T13:18:24.599Z,20.47
2022-12-18T13:21:03.219Z,20.37
2022-12-18T13:23:39.844Z,19.97
2022-12-18T13:26:07.713Z,20.03
2022-12-18T13:28:47.097Z,20.27
2022-12-18T13:31:34.724Z,21.20
2022-12-18T13:34:34.136Z,20.43
2022-12-18T13:37:33.396Z,19.27
2022-12-18T13:40:00.348Z,19.80
2022-12-18T13:42:59.191Z,20.83
2022-12-18T13:46:22.950Z,19.37
2022-12-18T13:49:05.524Z,18.50
2022-12-18T13:51:35.165Z,19.93
2022-12-18T13:54:13.529Z,20.77
2022-12-18T13:56:47.029Z,20.20
2022-12-18T13:59:28.049Z,20.77
2022-12-18T14:02:00.031Z,19.43
2022-12-18T14:04:35.685Z,19.70
2022-12-18T14:07:16.738Z,19.77
2022-12-18T14:09:49.928Z,21.70
2022-12-18T14:12:43.992Z,19.70
2022-12-18T14:15:27.701Z,18.57
2022-12-18T14:18:25.858Z,19.57
2022-12-18T14:21:02.623Z,19.93
2022-12-18T14:23:35.681Z,20.63
2022-12-18T14:26:20.295Z,19.73
2022-12-18T14:28:47.676Z,19.63
2022-12-18T14:31:26.371Z,19.97
2022-12-18T14:33:57.059Z,18.40
2022-12-18T14:36:30.309Z,18.47
2022-12-18T14:39:02.222Z,20.17
2022-12-18T14:41:29.789Z,19.27
2022-12-18T14:44:06.665Z,20.23
2022-12-18T14:46:36.580Z,20.80
2022-12-18T14:49:30.197Z,19.20
2022-12-18T14:52:06.339Z,19.67
2022-12-18T14:54:38.027Z,19.73
2022-12-18T14:57:33.447Z,20.60
2022-12-18T15:00:12.271Z,19.10
2022-12-18T15:02:42.281Z,19.80
2022-12-18T15:05:32.607Z,19.90
2022-12-18T15:08:03.068Z,19.53
2022-12-18T15:10:33.657Z,20.20
2022-12-18T15:13:01.510Z,19.17
2022-12-18T15:15:34.731Z,19.27
2022-12-18T15:18:12.701Z,19.90
2022-12-18T15:20:58.291Z,19.90
2022-12-18T15:23:37.154Z,20.13
2022-12-18T15:26:09.970Z,18.83
2022-12-18T15:29:04.021Z,20.10
2022-12-18T15:31:37.636Z,19.43
2022-12-18T15:34:21.950Z,19.70
2022-12-18T15:36:49.005Z,19.20
2022-12-18T15:39:15.938Z,18.97
2022-12-18T15:42:03.171Z,19.43
2022-12-18T15:44:30.195Z,18.23
2022-12-18T15:46:57.905Z,19.47
2022-12-18T15:49:24.891Z,20.40
2022-12-18T15:51:56.270Z,18.03
2022-12-18T15:54:43.464Z,18.93
2022-12-18T15:57:26.426Z,18.67
2022-12-18T15:59:57.482Z,18.30
2022-12-18T16:02:25.494Z,17.57
2022-12-18T16:04:53.399Z,19.13
2022-12-18T16:07:25.499Z,18.67
2022-12-18T16:09:53.664Z,20.00
2022-12-18T16:12:26.016Z,18.77
2022-12-18T16:14:53.282Z,19.53
2022-12-18T16:17:20.625Z,19.10
2022-12-18T16:19:47.607Z,20.10
2022-12-18T16:22:30.185Z,19.30
2022-12-18T16:24:58.739Z,19.73
2022-12-18T16:27:26.271Z,18.97
2022-12-18T16:29:53.257Z,18.00
2022-12-18T16:32:22.491Z,19.97
2022-12-18T16:34:50.494Z,18.10
2022-12-18T16:37:17.809Z,18.00
2022-12-18T16:39:45.163Z,19.03
2022-12-18T16:42:20.371Z,18.50
2022-12-18T16:44:50.045Z,17.83
2022-12-18T16:47:18.171Z,19.07
2022-12-18T16:49:46.179Z,17.77
2022-12-18T16:52:13.883Z,17.97
2022-12-18T16:54:40.951Z,18.80
2022-12-18T16:57:09.359Z,18.43
2022-12-18T16:59:36.520Z,17.23
2022-12-18T17:02:03.574Z,18.40
2022-12-18T17:04:30.633Z,17.47
2022-12-18T17:06:57.676Z,17.37
2022-12-18T17:09:27.664Z,18.63
2022-12-18T17:11:55.048Z,17.47
2022-12-18T17:14:24.562Z,18.57
2022-12-18T17:17:19.919Z,19.27
2022-12-18T17:19:42.042Z,17.77
2022-12-18T17:22:09.597Z,18.17
2022-12-18T17:24:36.764Z,19.90
2022-12-18T17:27:04.985Z,18.87
2022-12-18T17:29:32.072Z,20.47
2022-12-18T17:32:00.374Z,19.13
2022-12-18T17:34:28.373Z,19.93
2022-12-18T17:36:56.835Z,19.53
2022-12-18T17:39:24.049Z,18.47
2022-12-18T17:41:51.010Z,20.33
2022-12-18T17:44:18.952Z,19.33
2022-12-18T17:46:46.752Z,20.30
2022-12-18T17:49:14.605Z,19.33
2022-12-18T17:51:45.170Z,20.17
2022-12-18T17:54:12.164Z,20.00
2022-12-18T17:56:40.038Z,21.73
2022-12-18T17:59:07.329Z,19.80
2022-12-18T18:01:38.487Z,20.30
2022-12-18T18:04:08.219Z,19.47
2022-12-18T18:06:36.953Z,19.63
2022-12-18T18:09:15.901Z,19.47
2022-12-18T18:12:03.778Z,20.37
2022-12-18T18:14:31.093Z,21.47
2022-12-18T18:17:01.130Z,19.67
2022-12-18T18:19:32.431Z,21.40
2022-12-18T18:21:59.474Z,21.23
2022-12-18T18:24:26.675Z,22.20
2022-12-18T18:26:56.585Z,21.03
2022-12-18T18:29:26.703Z,21.93
2022-12-18T18:31:55.069Z,21.10
2022-12-18T18:34:25.564Z,20.80
2022-12-18T18:36:53.010Z,20.63
2022-12-18T18:39:20.503Z,20.53
2022-12-18T18:41:48.749Z,20.97
2022-12-18T18:44:18.027Z,22.40
2022-12-18T18:46:45.484Z,21.60
2022-12-18T18:49:13.889Z,20.90
2022-12-18T18:51:42.263Z,23.17
2022-12-18T18:54:10.362Z,21.50
2022-12-18T18:59:31.766Z,21.80
2022-12-18T19:02:00.758Z,20.63
2022-12-18T19:04:34.024Z,22.97
2022-12-18T19:07:01.271Z,20.97
2022-12-18T19:09:28.822Z,20.63
2022-12-18T19:12:14.366Z,20.83
2022-12-18T19:14:41.376Z,20.93
2022-12-18T19:17:08.506Z,20.23
2022-12-18T19:19:35.633Z,21.20
2022-12-18T19:22:02.930Z,22.40
2022-12-18T19:24:30.077Z,22.40
2022-12-18T19:26:58.218Z,22.47
2022-12-18T19:29:25.496Z,21.90
2022-12-18T19:31:52.678Z,23.87
2022-12-18T19:34:20.058Z,21.33
2022-12-18T19:36:47.164Z,22.83
2022-12-18T19:39:17.959Z,22.47
2022-12-18T19:41:47.324Z,21.70
2022-12-18T19:44:16.470Z,21.07
2022-12-18T19:46:46.201Z,21.13
2022-12-18T19:49:18.093Z,22.13
2022-12-18T19:51:45.812Z,22.40
2022-12-18T19:54:16.929Z,21.00
2022-12-18T19:56:45.468Z,20.53
2022-12-18T19:59:13.114Z,21.30
2022-12-18T20:01:40.428Z,21.53
2022-12-18T20:04:07.804Z,20.43
2022-12-18T20:06:52.055Z,20.70
2022-12-18T20:09:21.056Z,20.40
2022-12-18T20:11:48.817Z,21.90
2022-12-18T20:14:22.788Z,19.90
2022-12-18T20:16:52.313Z,20.17
2022-12-18T20:19:20.053Z,19.37
2022-12-18T20:21:47.617Z,20.70
2022-12-18T20:24:14.595Z,20.27
2022-12-18T20:26:41.954Z,20.23
2022-12-18T20:29:08.910Z,21.07
2022-12-18T20:31:35.901Z,19.80
2022-12-18T20:34:04.982Z,18.53
2022-12-18T20:36:35.240Z,19.83
2022-12-18T20:39:06.506Z,19.93
2022-12-18T20:41:38.277Z,18.33
2022-12-18T20:44:18.999Z,18.70
2022-12-18T20:46:56.475Z,20.07
2022-12-18T20:49:26.524Z,19.83
2022-12-18T20:51:56.636Z,19.30
2022-12-18T20:54:26.267Z,20.17
2022-12-18T20:56:53.212Z,18.40
2022-12-18T20:59:20.388Z,20.00
2022-12-18T21:01:48.991Z,17.80
2022-12-18T21:04:18.591Z,19.07
2022-12-18T21:06:53.073Z,19.00
2022-12-18T21:09:23.368Z,18.20
2022-12-18T21:12:10.300Z,17.63
2022-12-18T21:14:41.011Z,18.17
2022-12-18T21:17:08.173Z,17.77
2022-12-18T21:19:35.148Z,18.07
2022-12-18T21:22:03.497Z,18.10
2022-12-18T21:24:32.561Z,19.33
2022-12-18T21:27:00.004Z,18.57
2022-12-18T21:29:27.228Z,19.17
2022-12-18T21:31:54.859Z,18.17
2022-12-18T21:34:26.375Z,18.67
2022-12-18T21:36:55.139Z,19.40
2022-12-18T21:39:22.538Z,18.60
2022-12-18T21:42:09.491Z,17.03
2022-12-18T21:44:42.183Z,18.00
2022-12-18T21:47:22.163Z,16.87
2022-12-18T21:49:52.090Z,17.50
2022-12-18T21:52:19.745Z,17.67
2022-12-18T21:54:48.572Z,17.67
2022-12-18T21:57:15.589Z,17.50
2022-12-18T21:59:45.702Z,17.20
2022-12-18T22:02:17.435Z,19.17
2022-12-18T22:04:46.887Z,18.87
2022-12-18T22:07:15.483Z,18.90
2022-12-18T22:09:42.991Z,18.97
2022-12-18T22:12:13.015Z,20.37
2022-12-18T22:14:39.988Z,19.03
2022-12-18T22:17:07.125Z,17.77
2022-12-18T22:19:42.633Z,18.20
2022-12-18T22:22:10.057Z,20.10
2022-12-18T22:24:37.000Z,20.43
2022-12-18T22:27:04.696Z,19.00
2022-12-18T22:29:53.758Z,18.77
2022-12-18T22:32:30.856Z,17.47
2022-12-18T22:35:05.220Z,18.30
2022-12-18T22:37:34.262Z,18.47
2022-12-18T22:40:03.248Z,17.07
2022-12-18T22:42:31.372Z,18.47
2022-12-18T22:44:58.362Z,17.47
2022-12-18T22:47:29.395Z,18.53
2022-12-18T22:49:57.958Z,16.53
2022-12-18T22:52:25.389Z,18.63
2022-12-18T22:54:54.059Z,18.70
2022-12-18T22:57:23.206Z,18.07
2022-12-18T22:59:51.580Z,17.63
2022-12-18T23:02:21.766Z,17.17
2022-12-18T23:04:48.949Z,15.40
2022-12-18T23:07:16.824Z,17.17
2022-12-18T23:09:44.315Z,17.07
2022-12-18T23:12:18.598Z,15.27
2022-12-18T23:14:47.250Z,16.20
2022-12-18T23:17:14.279Z,16.13
2022-12-18T23:19:47.167Z,15.93
2022-12-18T23:22:15.751Z,14.90
2022-12-18T23:24:42.645Z,13.73
2022-12-18T23:27:12.303Z,14.40
2022-12-18T23:29:40.421Z,13.33
2022-12-18T23:32:08.125Z,13.97
2022-12-18T23:34:35.033Z,13.87
2022-12-18T23:37:03.613Z,13.30
2022-12-18T23:39:30.699Z,13.37
2022-12-18T23:42:01.546Z,11.60
2022-12-18T23:44:28.576Z,12.43
2022-12-18T23:46:55.767Z,11.60
2022-12-18T23:49:23.272Z,12.10
2022-12-18T23:51:50.429Z,12.90
2022-12-18T23:54:17.395Z,13.20
2022-12-18T23:56:49.326Z,13.17
2022-12-18T23:59:16.258Z,13.33
